createdAt,value
2022-12-12T00:10:07.237Z,105.7
2022-12-12T00:24:09.273Z,104.4
2022-12-12T00:38:13.902Z,104.4
2022-12-12T00:52:23.833Z,104.5
2022-12-12T01:06:33.470Z,102.9
2022-12-12T01:20:43.021Z,102.8
2022-12-12T01:34:49.729Z,100.7
2022-12-12T01:48:56.135Z,99.9
2022-12-12T02:03:04.740Z,98.9
2022-12-12T02:17:13.809Z,98.3
2022-12-12T02:31:23.785Z,99.1
2022-12-12T02:45:32.315Z,99
2022-12-12T02:59:36.555Z,99.3
2022-12-12T03:13:45.640Z,98.9
2022-12-12T03:27:50.891Z,98.2
2022-12-12T03:42:02.874Z,99
2022-12-12T03:56:09.827Z,98.4
2022-12-12T04:10:15.249Z,96.9
2022-12-12T04:24:15.480Z,96.9
2022-12-12T04:38:20.017Z,96.5
2022-12-12T04:52:22.164Z,95.5
2022-12-12T05:06:26.461Z,95.8
2022-12-12T05:20:28.056Z,96.3
2022-12-12T05:34:31.069Z,93.6
2022-12-12T05:48:38.287Z,95
2022-12-12T06:02:45.696Z,95
2022-12-12T06:16:53.185Z,94.2
2022-12-12T06:31:00.615Z,93.3
2022-12-12T06:45:10.891Z,92.7
2022-12-12T06:59:21.730Z,92.1
2022-12-12T07:13:27.326Z,90.4
2022-12-12T07:27:34.652Z,89.5
2022-12-12T07:41:44.203Z,88.6
2022-12-12T07:55:48.967Z,86.7
2022-12-12T08:09:51.798Z,85.8
2022-12-12T08:23:58.271Z,87.4
2022-12-12T08:38:17.356Z,90.1
2022-12-12T08:52:20.590Z,89.1
2022-12-12T09:06:20.726Z,88.4
2022-12-12T09:20:26.693Z,88.3
2022-12-12T09:34:38.116Z,89
2022-12-12T09:48:48.590Z,90.1
2022-12-12T10:02:54.671Z,90.1
2022-12-12T10:16:58.352Z,89.6
2022-12-12T10:30:59.856Z,89.6
2022-12-12T10:45:02.566Z,90.1
2022-12-12T10:59:07.726Z,90.5
2022-12-12T11:13:16.497Z,91.8
2022-12-12T11:27:24.355Z,93.8
2022-12-12T11:41:41.151Z,95.4
2022-12-12T11:55:53.628Z,98.5
2022-12-12T12:09:51.512Z,97.4
2022-12-12T12:23:52.216Z,96.8
2022-12-12T12:37:58.913Z,98.6
2022-12-12T12:52:10.543Z,99
2022-12-12T13:06:17.025Z,100.6
2022-12-12T13:20:24.914Z,102.3
2022-12-12T13:34:37.924Z,102.1
2022-12-12T13:48:34.745Z,100
2022-12-12T14:02:36.432Z,99
2022-12-12T14:16:39.767Z,98.9
2022-12-12T14:30:41.322Z,98.4
2022-12-12T14:44:51.017Z,99.2
2022-12-12T14:58:53.471Z,98.2
2022-12-12T15:12:56.532Z,98.8
2022-12-12T15:27:01.857Z,94.4
2022-12-12T15:41:08.132Z,93.9
2022-12-12T15:55:06.150Z,94.2
2022-12-12T16:09:14.636Z,92.7
2022-12-12T16:23:20.779Z,93.7
2022-12-12T16:37:23.334Z,92.4
2022-12-12T16:51:30.782Z,92.8
2022-12-12T17:05:33.153Z,93.8
2022-12-12T17:19:36.034Z,94.6
2022-12-12T17:33:49.666Z,93
2022-12-12T17:47:47.709Z,92.7
2022-12-12T18:01:52.890Z,93.9
2022-12-12T18:15:56.074Z,93.7
2022-12-12T18:29:59.249Z,94
2022-12-12T18:44:06.123Z,94.5
2022-12-12T18:58:08.842Z,93.8
2022-12-12T19:12:11.785Z,92.7
2022-12-12T19:26:16.408Z,93.2
2022-12-12T19:40:17.413Z,93
2022-12-12T19:54:21.024Z,93.7
2022-12-12T20:08:23.914Z,92.4
2022-12-12T20:22:30.495Z,92.1
2022-12-12T20:36:32.571Z,92.2
2022-12-12T20:50:37.610Z,90.8
2022-12-12T21:04:41.328Z,89.9
2022-12-12T21:18:44.525Z,91
2022-12-12T21:32:53.003Z,91.7
2022-12-12T21:47:01.083Z,91.4
2022-12-12T22:01:03.846Z,92.8
2022-12-12T22:15:09.746Z,91.1
2022-12-12T22:29:12.925Z,91.3
2022-12-12T22:43:16.923Z,92
2022-12-12T22:57:19.866Z,91.7
2022-12-12T23:11:21.139Z,92.2
2022-12-12T23:25:25.644Z,93.2
2022-12-12T23:39:28.032Z,95.2
2022-12-12T23:53:32.447Z,94.4
